Airfield :
LOGIN :

Register | Disclaimer

   EN    FR    IT 

 










Legend :    VFR   Marginal VFR   IFR   Intensive IFR   Very Intensive IFR
Visi :
Ceiling :
>= 8 km
>= 3000ft
5 to 8 km
1000 to 3000 ft
1500m to 5 km
500 to 1000 ft
800 to 1500m
200 to 500 ft
< 800m
< 200 ft
Symbols :   Thunderstorms  Fog  Heavy snow  Heavy precipitations  Wind > 20 kt
SIGMETs :     Misc.  Thunderstorms  Icing  Turbulence  Mountain Waves  Volcanic Ashes






- Airport Elevation : 204 ft
- IATA code : KSU


ENKB - Kristiansund , Kvernberget

CURRENT METAR :
  • 211550Z 23017G28KT 190V250 9999 -DZ VCSH FEW018 SCT029 BKN098 06/01 Q0977 RMK WIND 745FT 23028G39KT

EXPIRED METARs :
  • 211520Z 20015G27KT 160V240 9999 FEW013TCU SCT021 BKN054 06/01 Q0976 RMK WIND 745FT 20031G43KT
  • 211450Z 19012G23KT 140V240 9999 -RA FEW013TCU SCT021 BKN024 04/02 Q0977 RMK WIND 745FT 19025G36KT
  • 211420Z 22016G30KT 160V270 8000 -SHRA FEW016TCU SCT020 BKN036 06/02 Q0977 RMK WIND 745FT 23029G43KT
  • 211350Z 19017G32KT 150V230 9999 -RA FEW016TCU SCT031 BKN062 07/00 Q0975 RMK WIND 745FT 19037G52KT
  • 211320Z 19015G26KT 140V240 9999 VCSH FEW008 SCT028 BKN076 08/00 Q0976 RMK WIND 745FT 19036G54KT
  • 211250Z 21021G36KT 180V240 9999 -RA FEW007 SCT028 BKN048 07/00 Q0977 RMK WIND 745FT 20039G62KT

TAF TAF ENKB
Valid from the 21 at 15:00 until the 21 at 22:00 UTC


211400Z 2115/2122 25028G42KT 9999 SH -RA FEW015TCU BKN025
TEMPO 2115/2117 RA BKN014
TEMPO 2117/2122 SHRA BKN020CB
PROB30
TEMPO 2119/2122 4000 TSGS BKN014CB



MET'MAP, your aeronautical weather chart ! - Copyright ORBIFLY December 2007 - Disclaimer

ORBIFLY MET'MAP TEAM :

Programming & Development : Alexandra Zaïnal
Concept & original design : Baudouin d'Aumeries
Assistance for programming : Marc-Olivier Méhu
Technical & hardware support : Manuel Goepfert

Contact : metmap@orbifly.com




SOURCES & CREDITS :

   NOAA